Time;durP1;ratioP1;P1;durP2;ratioP2;P2;SDS_P1;SDS_P2;PMS_P1;PMS_P2;Temp;Humidity;BMP_temperature;BMP_pressure;BME280_temperature;BME280_humidity;BME280_pressure;Samples;Min_cycle;Max_cycle;Signal;HPM_P1;HPM_P2
2022/09/12 00:00:21;;;;;;;6.18;4.05;;;10.50;95.70;;;;;;4954549;28;20107;-71
2022/09/12 00:02:46;;;;;;;7.13;4.03;;;10.50;95.70;;;;;;4954761;28;20122;-71
2022/09/12 00:05:12;;;;;;;8.15;4.55;;;10.50;95.60;;;;;;4957194;28;20621;-71
2022/09/12 00:07:37;;;;;;;5.22;3.63;;;10.50;95.70;;;;;;4958862;28;20027;-71
2022/09/12 00:10:07;;;;;;;5.90;4.43;;;10.50;95.80;;;;;;4954175;28;20086;-71
2022/09/12 00:12:33;;;;;;;9.00;4.68;;;10.50;95.70;;;;;;4969378;28;20117;-71
2022/09/12 00:14:59;;;;;;;6.55;4.22;;;10.40;95.70;;;;;;4971942;28;20121;-71
2022/09/12 00:17:24;;;;;;;6.40;4.50;;;10.40;95.70;;;;;;4971585;28;20030;-71
2022/09/12 00:19:50;;;;;;;7.22;4.70;;;10.40;95.80;;;;;;4967952;28;20027;-72
2022/09/12 00:22:15;;;;;;;5.82;3.88;;;10.40;95.80;;;;;;4966305;28;20110;-71
2022/09/12 00:24:41;;;;;;;6.40;3.50;;;10.30;95.80;;;;;;4957715;28;20030;-72
2022/09/12 00:27:06;;;;;;;7.55;4.82;;;10.30;95.60;;;;;;4974046;28;20116;-72
2022/09/12 00:29:32;;;;;;;6.60;4.53;;;10.30;95.80;;;;;;4971654;28;20467;-71
2022/09/12 00:31:57;;;;;;;9.18;4.90;;;10.30;95.90;;;;;;4961249;28;20035;-72
2022/09/12 00:34:23;;;;;;;6.90;4.57;;;10.30;96.00;;;;;;4973079;28;20376;-71
2022/09/12 00:36:48;;;;;;;6.45;4.45;;;10.20;95.90;;;;;;4969766;28;20047;-71
2022/09/12 00:39:16;;;;;;;8.18;4.22;;;10.20;95.80;;;;;;4969017;28;20047;-71
2022/09/12 00:41:42;;;;;;;10.85;4.95;;;10.20;95.80;;;;;;4971499;28;20501;-71
2022/09/12 00:44:23;;;;;;;7.72;4.60;;;10.20;95.90;;;;;;4959941;28;20040;-71
2022/09/12 00:46:58;;;;;;;7.28;4.90;;;10.20;95.90;;;;;;4954049;28;20031;-71
2022/09/12 00:49:29;;;;;;;9.90;5.60;;;10.20;95.90;;;;;;4965397;28;20086;-71
2022/09/12 00:52:00;;;;;;;6.93;5.03;;;10.20;95.90;;;;;;4968159;28;20420;-71
2022/09/12 00:54:31;;;;;;;10.00;6.47;;;10.20;95.90;;;;;;4971103;28;20478;-75
2022/09/12 00:57:02;;;;;;;10.15;6.47;;;10.20;96.00;;;;;;4968968;28;20054;-71
2022/09/12 00:59:38;;;;;;;10.68;6.47;;;10.10;95.90;;;;;;4966298;28;20034;-71
2022/09/12 01:02:04;;;;;;;13.02;7.55;;;10.20;96.00;;;;;;4967031;28;20455;-71
2022/09/12 01:04:31;;;;;;;12.75;7.10;;;10.20;96.00;;;;;;4974184;28;20035;-71
2022/09/12 01:06:57;;;;;;;9.52;6.53;;;10.10;96.10;;;;;;4963487;28;20061;-71
2022/09/12 01:09:24;;;;;;;9.98;6.20;;;10.10;96.20;;;;;;4971761;28;20046;-71
2022/09/12 01:11:51;;;;;;;10.93;6.47;;;10.10;96.40;;;;;;4965871;28;20028;-71
2022/09/12 01:14:19;;;;;;;10.35;5.93;;;10.10;96.40;;;;;;4968660;28;20473;-71
2022/09/12 01:16:46;;;;;;;10.50;6.95;;;10.10;96.40;;;;;;4966553;28;20023;-71
2022/09/12 01:19:36;;;;;;;8.90;6.25;;;10.00;96.50;;;;;;4975220;28;20464;-71
2022/09/12 01:22:13;;;;;;;7.72;5.60;;;10.00;96.50;;;;;;4966168;28;20075;-71
2022/09/12 01:25:06;;;;;;;10.63;6.45;;;10.00;96.50;;;;;;4963978;28;20035;-77
2022/09/12 01:27:48;;;;;;;8.68;5.78;;;9.90;96.40;;;;;;4965096;28;20033;-71
2022/09/12 01:30:23;;;;;;;7.97;5.50;;;9.90;96.40;;;;;;4970058;28;20027;-71
2022/09/12 01:33:24;;;;;;;8.40;5.65;;;9.80;96.40;;;;;;4968917;28;20029;-71
2022/09/12 01:36:10;;;;;;;8.27;5.55;;;9.90;96.30;;;;;;4971619;28;20035;-71
2022/09/12 01:38:47;;;;;;;9.50;6.60;;;9.80;96.30;;;;;;4960424;28;20136;-71
2022/09/12 01:41:21;;;;;;;12.27;8.05;;;9.90;96.40;;;;;;4971239;28;20034;-71
2022/09/12 01:43:57;;;;;;;14.48;8.70;;;9.90;96.50;;;;;;4962375;28;20049;-72
2022/09/12 01:46:38;;;;;;;15.70;9.75;;;9.90;96.50;;;;;;4966297;28;20105;-71
2022/09/12 01:49:10;;;;;;;;;;;10.00;96.70;;;;;;4960583;28;20349;-71
2022/09/12 01:51:50;;;;;;;16.95;9.88;;;10.10;96.90;;;;;;4969624;28;19997;-72
2022/09/12 01:54:35;;;;;;;20.60;12.23;;;10.10;97.00;;;;;;4968744;28;20479;-71
2022/09/12 01:57:06;;;;;;;22.85;13.65;;;10.30;97.30;;;;;;4969361;28;20014;-71
2022/09/12 01:59:47;;;;;;;22.83;14.43;;;10.40;97.50;;;;;;4965003;28;20437;-71
2022/09/12 02:02:50;;;;;;;28.73;15.52;;;10.50;97.60;;;;;;4966609;28;20030;-71
2022/09/12 02:05:23;;;;;;;21.65;13.95;;;10.50;97.50;;;;;;4970093;28;20031;-71
2022/09/12 02:07:55;;;;;;;20.88;12.63;;;10.50;97.50;;;;;;4973545;28;20340;-72
2022/09/12 02:10:25;;;;;;;20.13;11.95;;;10.30;97.40;;;;;;4965333;28;20050;-71
2022/09/12 02:13:17;;;;;;;19.05;11.73;;;10.30;97.50;;;;;;4963556;28;20374;-73
2022/09/12 02:15:49;;;;;;;19.70;12.70;;;10.20;97.60;;;;;;4960206;28;20430;-72
2022/09/12 02:18:17;;;;;;;24.35;13.75;;;10.30;97.90;;;;;;4957599;28;20030;-71
2022/09/12 02:20:46;;;;;;;21.13;13.98;;;10.30;97.80;;;;;;4967666;28;20434;-71
2022/09/12 02:23:21;;;;;;;28.35;15.43;;;10.30;97.70;;;;;;4971789;28;20038;-74
2022/09/12 02:25:50;;;;;;;29.83;15.77;;;10.40;98.00;;;;;;4970630;28;20070;-71
2022/09/12 02:28:25;;;;;;;29.10;15.63;;;10.50;98.10;;;;;;4968109;28;20491;-73
2022/09/12 02:31:12;;;;;;;27.60;16.02;;;10.60;98.20;;;;;;4965104;28;20109;-71
2022/09/12 02:33:47;;;;;;;33.75;16.15;;;10.60;98.20;;;;;;4971240;28;20027;-72
2022/09/12 02:36:40;;;;;;;38.22;18.45;;;10.70;98.40;;;;;;4959194;28;20023;-72
2022/09/12 02:39:06;;;;;;;32.45;17.50;;;10.80;98.40;;;;;;4971027;28;20030;-72
2022/09/12 02:41:31;;;;;;;32.72;18.08;;;10.80;98.40;;;;;;4970755;28;20589;-71
2022/09/12 02:43:57;;;;;;;36.97;17.83;;;10.80;98.40;;;;;;4968207;28;20460;-71
2022/09/12 02:46:58;;;;;;;30.00;17.20;;;10.80;98.40;;;;;;4968531;28;20049;-71
2022/09/12 02:49:23;;;;;;;32.78;17.17;;;10.80;98.40;;;;;;4924802;28;20423;-71
2022/09/12 02:51:49;;;;;;;29.83;16.55;;;10.80;98.40;;;;;;4972961;28;20081;-72
2022/09/12 02:54:17;;;;;;;32.53;16.63;;;10.70;98.40;;;;;;4965714;28;20031;-71
2022/09/12 02:56:44;;;;;;;31.58;16.02;;;10.60;98.40;;;;;;4970209;28;20026;-71
2022/09/12 02:59:21;;;;;;;37.58;16.13;;;10.50;98.50;;;;;;4968113;28;20039;-71
2022/09/12 03:02:06;;;;;;;26.27;15.18;;;10.40;98.30;;;;;;4970979;28;20360;-71
2022/09/12 03:04:35;;;;;;;23.67;13.80;;;10.30;98.30;;;;;;4974480;28;20041;-71
2022/09/12 03:07:49;;;;;;;23.92;14.95;;;10.20;98.40;;;;;;4970849;28;20035;-72
2022/09/12 03:11:02;;;;;;;22.73;12.30;;;10.30;98.50;;;;;;4927770;28;20125;-71
2022/09/12 03:13:56;;;;;;;24.92;12.70;;;10.10;98.40;;;;;;4927943;28;20134;-71
2022/09/12 03:16:47;;;;;;;25.42;12.55;;;10.10;98.30;;;;;;4955664;28;20050;-71
2022/09/12 03:19:26;;;;;;;23.13;12.93;;;10.00;98.40;;;;;;4966999;28;20367;-71
2022/09/12 03:21:58;;;;;;;25.08;13.40;;;10.00;98.30;;;;;;4974850;28;20039;-71
2022/09/12 03:24:31;;;;;;;24.42;12.85;;;9.90;98.20;;;;;;4970671;28;20035;-72
2022/09/12 03:27:12;;;;;;;21.45;12.75;;;9.80;98.10;;;;;;4966113;28;20027;-71
2022/09/12 03:29:39;;;;;;;20.83;11.95;;;9.80;98.20;;;;;;4967667;28;20026;-75
2022/09/12 03:32:06;;;;;;;18.85;11.05;;;9.70;98.20;;;;;;4959870;28;20026;-73
2022/09/12 03:34:31;;;;;;;16.23;10.57;;;9.70;98.00;;;;;;4960923;28;20114;-72
2022/09/12 03:36:57;;;;;;;17.90;10.73;;;9.60;98.00;;;;;;4971986;28;20404;-71
2022/09/12 03:39:25;;;;;;;17.98;10.77;;;9.60;98.10;;;;;;4973528;28;20081;-72
2022/09/12 03:41:51;;;;;;;20.48;11.63;;;9.60;98.00;;;;;;4965064;28;20113;-73
2022/09/12 03:44:17;;;;;;;21.88;11.40;;;9.60;98.00;;;;;;4970265;28;20041;-72
2022/09/12 03:46:43;;;;;;;22.23;12.20;;;9.60;98.00;;;;;;4964274;28;20027;-71
2022/09/12 03:49:09;;;;;;;24.27;13.43;;;9.60;98.00;;;;;;4962865;28;20097;-72
2022/09/12 03:51:35;;;;;;;27.92;14.05;;;9.60;98.00;;;;;;4968725;28;20054;-72
2022/09/12 03:54:01;;;;;;;28.77;14.35;;;9.60;98.10;;;;;;4972848;28;20030;-75
2022/09/12 03:56:26;;;;;;;23.48;13.18;;;9.60;98.00;;;;;;4972907;28;20030;-73
2022/09/12 03:58:52;;;;;;;26.05;13.85;;;9.60;98.00;;;;;;4965340;28;20371;-72
2022/09/12 04:01:18;;;;;;;25.45;14.52;;;9.60;98.10;;;;;;4969583;28;20465;-72
2022/09/12 04:03:46;;;;;;;30.40;16.30;;;9.60;98.10;;;;;;4970381;28;20361;-71
2022/09/12 04:06:14;;;;;;;30.08;16.40;;;9.60;98.20;;;;;;4957829;28;20472;-72
2022/09/12 04:08:41;;;;;;;37.40;18.05;;;9.90;98.50;;;;;;4963920;28;20043;-72
2022/09/12 04:11:12;;;;;;;35.72;17.75;;;10.00;98.60;;;;;;4974388;28;20035;-72
2022/09/12 04:13:38;;;;;;;;;;;10.10;98.50;;;;;;4965415;28;20031;-72
2022/09/12 04:16:04;;;;;;;35.30;17.13;;;10.10;98.60;;;;;;4954186;28;20343;-72
2022/09/12 04:18:30;;;;;;;33.83;17.23;;;10.10;98.60;;;;;;4963409;28;20035;-72
2022/09/12 04:20:56;;;;;;;43.95;19.98;;;10.20;98.70;;;;;;4964372;28;20555;-71
2022/09/12 04:23:22;;;;;;;43.60;20.77;;;10.20;98.70;;;;;;4965852;28;20456;-72
2022/09/12 04:26:00;;;;;;;41.92;20.42;;;10.30;98.70;;;;;;4956284;29;20027;-72
2022/09/12 04:28:27;;;;;;;42.13;20.17;;;10.30;98.80;;;;;;4962795;28;20106;-72
2022/09/12 04:30:54;;;;;;;40.15;19.60;;;10.30;98.80;;;;;;4959091;28;20055;-74
2022/09/12 04:33:20;;;;;;;47.80;21.52;;;10.20;98.80;;;;;;4972374;28;20047;-74
2022/09/12 04:35:46;;;;;;;44.15;20.85;;;10.20;98.90;;;;;;4967296;28;20105;-75
2022/09/12 04:38:11;;;;;;;45.65;21.42;;;10.20;98.80;;;;;;4969749;28;20034;-74
2022/09/12 04:40:37;;;;;;;47.80;20.42;;;10.20;98.90;;;;;;4971486;28;20070;-74
2022/09/12 04:43:03;;;;;;;42.00;20.55;;;10.10;98.80;;;;;;4968966;28;20022;-75
2022/09/12 04:45:29;;;;;;;49.80;20.75;;;10.10;98.80;;;;;;4966337;28;20053;-74
2022/09/12 04:47:55;;;;;;;48.92;20.80;;;10.10;98.80;;;;;;4971390;28;20034;-75
2022/09/12 04:50:21;;;;;;;46.42;20.52;;;10.10;98.80;;;;;;4969937;28;20062;-74
2022/09/12 04:52:51;;;;;;;44.53;20.23;;;10.10;99.10;;;;;;4960071;28;20035;-75
2022/09/12 04:55:16;;;;;;;46.92;20.63;;;10.10;99.00;;;;;;4960046;28;20035;-74
2022/09/12 04:57:42;;;;;;;48.03;21.33;;;10.10;99.00;;;;;;4958978;28;20478;-74
2022/09/12 05:00:12;;;;;;;52.78;20.48;;;10.20;99.10;;;;;;4957675;28;20042;-75
2022/09/12 05:02:38;;;;;;;55.10;23.42;;;10.20;99.00;;;;;;4956851;28;20057;-75
2022/09/12 05:05:04;;;;;;;52.28;22.58;;;10.20;99.00;;;;;;4968261;28;20023;-75
2022/09/12 05:07:29;;;;;;;51.95;22.48;;;10.20;99.00;;;;;;4964315;28;20027;-75
2022/09/12 05:09:55;;;;;;;52.05;22.33;;;10.20;99.10;;;;;;4968702;28;20118;-75
2022/09/12 05:12:20;;;;;;;53.10;22.65;;;10.20;99.10;;;;;;4971446;28;20031;-74
2022/09/12 05:14:46;;;;;;;51.72;21.42;;;10.20;99.10;;;;;;4968716;28;20488;-74
2022/09/12 05:17:11;;;;;;;47.13;20.73;;;10.30;99.10;;;;;;4969456;28;20031;-74
2022/09/12 05:19:38;;;;;;;52.88;23.08;;;10.30;99.20;;;;;;4973151;28;20081;-74
2022/09/12 05:22:05;;;;;;;56.20;22.40;;;10.40;99.20;;;;;;4965174;28;20353;-74
2022/09/12 05:24:31;;;;;;;56.60;23.48;;;10.40;99.20;;;;;;4967621;28;20542;-75
2022/09/12 05:26:57;;;;;;;55.05;23.73;;;10.50;99.20;;;;;;4968409;28;20106;-75
2022/09/12 05:29:24;;;;;;;60.65;24.52;;;10.50;99.20;;;;;;4969284;28;20020;-75
2022/09/12 05:31:50;;;;;;;67.57;26.02;;;10.50;99.20;;;;;;4962202;28;20759;-75
2022/09/12 05:34:16;;;;;;;59.42;22.35;;;10.60;99.20;;;;;;4967884;28;20105;-75
2022/09/12 05:36:42;;;;;;;62.50;22.70;;;10.60;99.20;;;;;;4971030;28;20165;-75
2022/09/12 05:39:07;;;;;;;51.97;22.50;;;10.60;99.10;;;;;;4969503;28;20043;-75
2022/09/12 05:41:34;;;;;;;60.47;24.33;;;10.60;99.10;;;;;;4955896;28;20455;-74
2022/09/12 05:44:02;;;;;;;54.17;22.83;;;10.60;99.20;;;;;;4961533;28;20021;-75
2022/09/12 05:46:30;;;;;;;58.60;22.48;;;10.60;99.20;;;;;;4968766;28;20121;-75
2022/09/12 05:49:01;;;;;;;56.35;23.60;;;10.70;99.20;;;;;;4962773;28;20023;-75
2022/09/12 05:51:30;;;;;;;54.60;23.13;;;10.80;99.40;;;;;;4969198;28;20043;-75
2022/09/12 05:53:58;;;;;;;59.63;24.67;;;10.90;99.30;;;;;;4967753;28;20093;-74
2022/09/12 05:56:26;;;;;;;53.38;22.60;;;11.00;99.20;;;;;;4959944;28;20367;-75
2022/09/12 05:58:57;;;;;;;63.22;24.17;;;11.00;99.20;;;;;;4964547;28;20435;-75
2022/09/12 06:01:23;;;;;;;57.63;24.90;;;11.00;99.20;;;;;;4968971;28;20482;-74
2022/09/12 06:03:51;;;;;;;65.20;24.70;;;11.10;99.30;;;;;;4959092;28;20543;-75
2022/09/12 06:06:19;;;;;;;58.47;24.50;;;11.20;99.30;;;;;;4970404;28;20085;-74
2022/09/12 06:08:47;;;;;;;64.07;25.10;;;11.30;99.30;;;;;;4966731;28;20042;-74
2022/09/12 06:11:21;;;;;;;62.95;24.92;;;11.40;99.30;;;;;;4968977;28;20034;-75
2022/09/12 06:13:47;;;;;;;59.40;25.00;;;11.50;99.30;;;;;;4967595;28;20102;-74
2022/09/12 06:16:24;;;;;;;64.70;25.95;;;11.50;99.30;;;;;;4962044;28;20019;-74
2022/09/12 06:18:55;;;;;;;61.78;26.02;;;11.70;99.30;;;;;;4963444;28;20033;-74
2022/09/12 06:21:21;;;;;;;60.67;25.60;;;11.70;99.30;;;;;;4965680;28;20460;-74
2022/09/12 06:23:48;;;;;;;61.83;25.65;;;11.80;99.10;;;;;;4965034;28;20121;-74
2022/09/12 06:26:16;;;;;;;61.10;25.70;;;11.90;99.30;;;;;;4966515;28;20027;-74
2022/09/12 06:28:43;;;;;;;63.08;26.05;;;12.00;99.30;;;;;;4973555;28;20037;-74
2022/09/12 06:31:20;;;;;;;59.67;25.40;;;12.00;99.20;;;;;;4961080;28;20046;-74
2022/09/12 06:33:49;;;;;;;60.75;25.77;;;12.10;99.30;;;;;;4972469;28;20034;-74
2022/09/12 06:36:20;;;;;;;60.63;26.25;;;12.20;99.20;;;;;;4970409;28;20026;-74
2022/09/12 06:38:47;;;;;;;61.00;25.80;;;12.30;99.20;;;;;;4971767;28;20090;-74
2022/09/12 06:41:13;;;;;;;60.15;27.17;;;12.40;99.30;;;;;;4965870;28;20460;-74
2022/09/12 06:43:40;;;;;;;53.25;24.77;;;12.50;99.30;;;;;;4966038;28;20031;-75
2022/09/12 06:46:06;;;;;;;61.03;25.95;;;12.60;99.20;;;;;;4965764;28;20061;-74
2022/09/12 06:48:32;;;;;;;60.33;26.27;;;12.70;99.10;;;;;;4970445;28;20337;-74
2022/09/12 06:51:03;;;;;;;60.53;27.20;;;12.70;99.00;;;;;;4972193;28;20034;-74
2022/09/12 06:53:32;;;;;;;60.47;27.13;;;12.80;99.00;;;;;;4971916;28;20097;-74
2022/09/12 06:56:03;;;;;;;53.97;25.02;;;12.90;98.90;;;;;;4973724;28;20023;-74
2022/09/12 06:58:30;;;;;;;51.10;25.85;;;13.00;98.90;;;;;;4967624;28;20374;-75
2022/09/12 07:01:16;;;;;;;49.67;24.92;;;13.10;98.80;;;;;;4963283;28;20086;-74
2022/09/12 07:03:45;;;;;;;52.90;25.17;;;13.20;98.80;;;;;;4965766;28;20027;-74
2022/09/12 07:06:12;;;;;;;51.70;24.45;;;13.30;98.60;;;;;;4967236;28;20475;-74
2022/09/12 07:08:39;;;;;;;51.83;25.60;;;13.30;98.50;;;;;;4963208;28;20061;-74
2022/09/12 07:11:23;;;;;;;46.33;23.38;;;13.50;98.50;;;;;;4956691;28;20492;-74
2022/09/12 07:13:51;;;;;;;47.38;23.75;;;13.60;98.20;;;;;;4962551;28;20530;-74
2022/09/12 07:16:17;;;;;;;35.90;20.77;;;13.60;97.90;;;;;;4971732;28;20037;-74
2022/09/12 07:18:42;;;;;;;39.60;22.17;;;13.80;97.80;;;;;;4973696;28;20445;-74
2022/09/12 07:21:13;;;;;;;34.67;19.33;;;13.90;97.70;;;;;;4973429;28;20057;-74
2022/09/12 07:23:40;;;;;;;35.90;18.02;;;14.00;97.40;;;;;;4971620;28;20027;-74
2022/09/12 07:26:07;;;;;;;27.88;16.48;;;14.00;97.00;;;;;;4973483;28;20059;-74
2022/09/12 07:28:33;;;;;;;22.45;14.50;;;14.10;96.50;;;;;;4965064;28;20019;-74
2022/09/12 07:31:10;;;;;;;21.02;14.00;;;14.30;96.00;;;;;;4967151;28;20707;-74
2022/09/12 07:33:37;;;;;;;19.17;13.30;;;14.40;95.50;;;;;;4963469;28;20034;-75
2022/09/12 07:36:05;;;;;;;15.98;10.95;;;14.50;95.10;;;;;;4972284;28;20027;-74
2022/09/12 07:38:30;;;;;;;11.65;9.15;;;14.60;94.90;;;;;;4960250;28;20114;-74
2022/09/12 07:40:56;;;;;;;11.52;8.52;;;14.70;94.60;;;;;;4968355;28;20031;-74
2022/09/12 07:43:22;;;;;;;9.85;7.65;;;14.80;94.10;;;;;;4969150;28;20109;-74
2022/09/12 07:45:47;;;;;;;14.00;6.82;;;15.00;93.20;;;;;;4963772;28;20157;-75
2022/09/12 07:48:13;;;;;;;10.27;6.93;;;15.00;93.20;;;;;;4969966;28;20519;-74
2022/09/12 07:50:39;;;;;;;8.60;5.88;;;15.10;93.20;;;;;;4971524;28;20162;-74
2022/09/12 07:53:05;;;;;;;7.13;5.60;;;15.40;92.10;;;;;;4958810;28;20105;-74
2022/09/12 07:55:30;;;;;;;5.53;4.35;;;15.40;91.80;;;;;;4964636;28;20059;-74
2022/09/12 07:57:56;;;;;;;5.30;4.00;;;15.60;91.40;;;;;;4965059;28;20097;-75
2022/09/12 08:00:22;;;;;;;7.03;4.07;;;15.70;91.40;;;;;;4968432;28;20026;-74
2022/09/12 08:02:51;;;;;;;6.18;4.03;;;15.90;91.60;;;;;;4968003;28;20038;-75
2022/09/12 08:05:18;;;;;;;5.53;3.90;;;16.10;91.50;;;;;;4970821;28;20033;-74
2022/09/12 08:07:43;;;;;;;5.88;3.45;;;16.30;90.40;;;;;;4966933;28;20139;-75
2022/09/12 08:10:09;;;;;;;4.43;2.95;;;16.50;89.50;;;;;;4969464;28;20476;-74
2022/09/12 08:12:35;;;;;;;3.90;2.58;;;16.70;88.70;;;;;;4968742;28;20150;-75
2022/09/12 08:15:01;;;;;;;3.60;2.60;;;16.80;87.20;;;;;;4969335;28;20494;-75
2022/09/12 08:17:28;;;;;;;3.85;2.42;;;17.10;86.90;;;;;;4969977;28;20034;-75
2022/09/12 08:19:53;;;;;;;3.42;2.05;;;17.30;87.60;;;;;;4966637;28;20023;-74
2022/09/12 08:22:20;;;;;;;2.72;2.15;;;17.50;86.00;;;;;;4967058;28;20094;-74
2022/09/12 08:24:46;;;;;;;2.05;1.65;;;17.70;84.10;;;;;;4962720;28;20034;-75
2022/09/12 08:27:12;;;;;;;3.42;1.83;;;17.80;83.80;;;;;;4969718;28;20483;-75
2022/09/12 08:29:37;;;;;;;4.05;1.77;;;17.90;82.00;;;;;;4970551;28;20418;-75
2022/09/12 08:32:03;;;;;;;3.10;1.83;;;18.10;83.70;;;;;;4966829;28;20023;-75
2022/09/12 08:34:28;;;;;;;3.05;1.80;;;18.40;83.20;;;;;;4965560;28;20038;-75
2022/09/12 08:36:54;;;;;;;3.53;1.50;;;18.40;81.00;;;;;;4974992;28;20117;-75
2022/09/12 08:39:20;;;;;;;7.97;1.80;;;18.40;79.90;;;;;;4973765;28;20110;-75
2022/09/12 08:41:48;;;;;;;3.42;1.90;;;18.60;80.40;;;;;;4972979;28;20045;-75
2022/09/12 08:44:18;;;;;;;2.40;1.73;;;18.90;81.00;;;;;;4962752;28;20031;-75
2022/09/12 08:46:51;;;;;;;5.28;1.90;;;19.10;79.10;;;;;;4964746;28;20034;-75
2022/09/12 08:49:28;;;;;;;4.18;1.80;;;19.50;80.30;;;;;;4971614;28;20432;-75
2022/09/12 08:51:56;;;;;;;5.30;2.03;;;19.40;77.20;;;;;;4956630;28;20051;-75
2022/09/12 08:54:28;;;;;;;2.53;1.77;;;19.50;76.40;;;;;;4963199;28;20353;-75
2022/09/12 08:57:00;;;;;;;2.38;1.35;;;19.80;77.30;;;;;;4957707;28;20023;-75
2022/09/12 08:59:28;;;;;;;1.83;1.20;;;20.30;77.60;;;;;;4970562;28;20019;-75
2022/09/12 09:01:58;;;;;;;1.90;1.30;;;20.30;74.40;;;;;;4971581;28;20034;-75
2022/09/12 09:04:46;;;;;;;1.92;1.23;;;20.50;73.40;;;;;;4974469;28;20093;-75
2022/09/12 09:07:24;;;;;;;1.83;1.38;;;20.50;73.10;;;;;;4960625;28;20391;-75
2022/09/12 09:10:20;;;;;;;1.33;1.05;;;20.50;73.10;;;;;;4970053;28;20079;-75
2022/09/12 09:14:46;;;;;;;2.03;1.10;;;20.10;71.00;;;;;;4953102;29;20102;-75
2022/09/12 09:16:17;;;;;;;1.67;0.95;;;20.10;71.50;;;;;;4944053;28;20035;-75
2022/09/12 09:18:46;;;;;;;2.70;1.30;;;20.30;72.20;;;;;;4973181;28;20046;-75
2022/09/12 09:21:34;;;;;;;1.90;1.20;;;20.20;71.40;;;;;;4972020;28;20054;-73
2022/09/12 09:24:05;;;;;;;1.95;1.00;;;20.60;71.20;;;;;;4961412;28;20035;-73
2022/09/12 09:26:45;;;;;;;2.15;0.98;;;20.60;70.30;;;;;;4958327;28;20027;-73
2022/09/12 09:29:14;;;;;;;;;;;20.50;67.90;;;;;;4965580;28;20030;-73
2022/09/12 09:31:41;;;;;;;1.75;0.90;;;20.80;69.60;;;;;;4971103;28;20270;-73
2022/09/12 09:34:18;;;;;;;1.27;0.73;;;21.10;69.00;;;;;;4973848;28;20022;-73
2022/09/12 09:37:02;;;;;;;1.42;0.70;;;21.00;67.70;;;;;;4966588;28;20478;-73
2022/09/12 09:39:46;;;;;;;2.50;1.00;;;21.10;68.50;;;;;;4969660;28;20060;-73
2022/09/12 09:42:28;;;;;;;1.25;0.90;;;21.00;66.90;;;;;;4962639;28;20075;-73
2022/09/12 09:44:58;;;;;;;1.17;0.80;;;21.20;67.10;;;;;;4955754;28;20030;-73
2022/09/12 09:47:24;;;;;;;1.67;1.10;;;21.60;67.40;;;;;;4963888;28;20054;-73
2022/09/12 09:49:49;;;;;;;1.35;1.02;;;21.90;66.80;;;;;;4967839;28;20404;-73
2022/09/12 09:52:18;;;;;;;2.22;0.90;;;21.60;66.40;;;;;;4973539;28;20081;-73
2022/09/12 09:54:50;;;;;;;1.88;1.10;;;21.60;67.10;;;;;;4972187;28;20027;-73
2022/09/12 09:57:34;;;;;;;1.48;1.20;;;21.60;65.20;;;;;;4966521;28;20066;-73
2022/09/12 10:00:24;;;;;;;1.83;1.10;;;21.80;65.90;;;;;;4962929;28;20038;-74
2022/09/12 10:03:28;;;;;;;3.83;1.60;;;21.90;66.10;;;;;;4960019;28;20043;-74
2022/09/12 10:05:58;;;;;;;4.45;2.00;;;22.00;65.00;;;;;;4960904;28;20109;-74
2022/09/12 10:08:30;;;;;;;3.63;2.25;;;22.00;64.10;;;;;;4962381;28;20055;-73
2022/09/12 10:11:00;;;;;;;2.72;1.65;;;22.00;64.30;;;;;;4965010;28;20038;-73
2022/09/12 10:13:55;;;;;;;2.85;1.58;;;22.20;62.80;;;;;;4967331;28;20122;-73
2022/09/12 10:16:24;;;;;;;3.25;1.75;;;21.70;62.90;;;;;;4961785;28;20327;-74
2022/09/12 10:18:51;;;;;;;4.28;1.70;;;21.60;63.50;;;;;;4961294;28;20050;-73
2022/09/12 10:21:28;;;;;;;2.45;1.77;;;21.80;65.10;;;;;;4959955;28;20115;-73
2022/09/12 10:24:23;;;;;;;2.90;1.90;;;21.70;63.60;;;;;;4958740;28;20046;-74
2022/09/12 10:26:56;;;;;;;3.85;1.88;;;21.00;63.50;;;;;;4959621;28;20149;-74
2022/09/12 10:29:26;;;;;;;2.63;1.60;;;21.00;66.50;;;;;;4967155;28;20077;-74
2022/09/12 10:31:55;;;;;;;3.55;1.77;;;21.10;64.90;;;;;;4958679;28;20055;-74
2022/09/12 10:34:31;;;;;;;3.03;1.70;;;21.20;65.60;;;;;;4966493;28;20031;-74
2022/09/12 10:37:04;;;;;;;3.53;1.80;;;21.30;66.00;;;;;;4971402;28;20027;-74
2022/09/12 10:39:31;;;;;;;6.90;2.20;;;21.40;64.80;;;;;;4966275;28;20475;-74
2022/09/12 10:41:56;;;;;;;5.13;2.35;;;21.60;64.90;;;;;;4961023;28;20038;-73
2022/09/12 10:44:29;;;;;;;6.68;2.50;;;21.50;63.80;;;;;;4969935;28;20054;-73
2022/09/12 10:46:56;;;;;;;3.85;2.50;;;21.70;63.80;;;;;;4957701;28;20133;-73
2022/09/12 10:49:28;;;;;;;5.97;2.22;;;21.90;65.20;;;;;;4949353;28;20042;-73
2022/09/12 10:51:55;;;;;;;5.43;2.88;;;22.00;64.50;;;;;;4939741;28;20659;-73
2022/09/12 10:54:24;;;;;;;5.50;2.45;;;22.20;64.40;;;;;;4961702;28;20046;-73
2022/09/12 10:57:04;;;;;;;4.70;2.90;;;22.00;64.10;;;;;;4966799;28;20030;-74
2022/09/12 10:59:59;;;;;;;5.65;2.80;;;22.40;63.10;;;;;;4961152;28;20086;-73
2022/09/12 11:02:31;;;;;;;6.30;2.65;;;22.00;64.20;;;;;;4958825;28;20035;-75
2022/09/12 11:05:35;;;;;;;5.63;3.30;;;22.50;65.30;;;;;;4967702;28;20038;-73
2022/09/12 11:08:27;;;;;;;9.88;3.90;;;22.50;64.20;;;;;;4968627;28;20057;-73
2022/09/12 11:11:46;;;;;;;5.93;3.42;;;22.50;63.20;;;;;;4966445;28;20380;-74
2022/09/12 11:14:27;;;;;;;5.75;3.45;;;22.40;64.50;;;;;;4912694;29;20434;-74
2022/09/12 11:17:24;;;;;;;8.10;4.55;;;22.50;64.00;;;;;;4971661;28;20042;-74
2022/09/12 11:20:02;;;;;;;9.65;4.55;;;22.60;64.10;;;;;;4960714;28;20125;-74
2022/09/12 11:22:44;;;;;;;8.55;4.60;;;22.40;64.60;;;;;;4964380;28;20058;-74
2022/09/12 11:25:17;;;;;;;6.93;4.10;;;22.30;65.00;;;;;;4964725;28;20078;-74
2022/09/12 11:27:42;;;;;;;6.18;4.10;;;22.60;65.50;;;;;;4961712;28;20019;-73
2022/09/12 11:30:16;;;;;;;7.63;4.60;;;22.50;64.10;;;;;;4971399;28;20746;-73
2022/09/12 11:33:06;;;;;;;9.80;5.00;;;22.50;63.90;;;;;;4965076;28;20344;-74
2022/09/12 11:35:34;;;;;;;7.67;4.50;;;22.40;64.40;;;;;;4971010;28;20412;-73
2022/09/12 11:38:37;;;;;;;7.43;3.88;;;22.70;64.30;;;;;;4968754;28;20061;-73
2022/09/12 11:41:08;;;;;;;8.68;4.30;;;22.30;64.30;;;;;;4970711;28;20046;-74
2022/09/12 11:43:40;;;;;;;;;;;22.20;63.80;;;;;;4967790;28;20106;-73
2022/09/12 11:46:33;;;;;;;8.23;3.67;;;22.10;65.40;;;;;;4974911;28;20342;-73
2022/09/12 11:49:14;;;;;;;6.95;4.00;;;22.30;65.50;;;;;;4973302;28;20122;-73
2022/09/12 11:51:52;;;;;;;6.78;3.70;;;22.40;65.20;;;;;;4967204;28;20018;-74
2022/09/12 11:54:26;;;;;;;5.70;3.50;;;22.60;64.10;;;;;;4969122;28;20069;-73
2022/09/12 11:57:07;;;;;;;10.15;3.53;;;22.90;64.90;;;;;;4967778;28;20113;-74
2022/09/12 11:59:45;;;;;;;7.93;3.97;;;23.00;63.20;;;;;;4969622;28;20023;-73
2022/09/12 12:02:21;;;;;;;6.43;3.78;;;22.90;61.70;;;;;;4968738;28;20035;-73
2022/09/12 12:05:00;;;;;;;5.65;3.70;;;23.00;62.10;;;;;;4970306;28;20034;-74
2022/09/12 12:07:41;;;;;;;9.88;4.53;;;23.00;62.60;;;;;;4961099;28;20467;-74
2022/09/12 12:10:20;;;;;;;7.80;3.97;;;23.10;61.70;;;;;;4966090;28;20041;-74
2022/09/12 12:12:47;;;;;;;9.50;4.78;;;22.90;61.30;;;;;;4965506;28;20042;-73
2022/09/12 12:15:15;;;;;;;7.50;4.47;;;23.00;62.00;;;;;;4968310;28;20025;-73
2022/09/12 12:17:40;;;;;;;7.63;4.18;;;22.70;62.60;;;;;;4955870;28;20039;-73
2022/09/12 12:20:16;;;;;;;6.20;3.58;;;22.50;65.00;;;;;;4957170;28;20027;-73
2022/09/12 12:22:55;;;;;;;8.00;3.53;;;22.50;66.20;;;;;;4963387;28;20066;-73
2022/09/12 12:25:40;;;;;;;5.85;4.05;;;22.60;64.90;;;;;;4971692;28;20030;-73
2022/09/12 12:28:06;;;;;;;7.50;4.03;;;22.40;65.00;;;;;;4957281;28;20020;-73
2022/09/12 12:30:32;;;;;;;7.07;3.90;;;22.10;64.30;;;;;;4966466;28;20090;-73
2022/09/12 12:33:21;;;;;;;5.65;3.45;;;22.50;64.30;;;;;;4970827;28;20030;-73
2022/09/12 12:35:59;;;;;;;8.10;3.85;;;22.70;64.70;;;;;;4965778;28;20038;-73
2022/09/12 12:38:36;;;;;;;7.13;3.75;;;22.80;63.90;;;;;;4962009;28;20089;-76
2022/09/12 12:41:16;;;;;;;8.00;3.75;;;23.10;64.00;;;;;;4965232;28;20029;-76
2022/09/12 12:43:46;;;;;;;6.47;3.70;;;23.60;63.20;;;;;;4966152;28;20022;-76
2022/09/12 12:46:14;;;;;;;6.03;3.35;;;23.90;60.80;;;;;;4967679;28;20076;-73
2022/09/12 12:48:51;;;;;;;6.78;3.55;;;24.40;59.40;;;;;;4965685;28;20035;-73
2022/09/12 12:51:45;;;;;;;6.82;3.80;;;24.50;57.10;;;;;;4962887;28;20090;-74
2022/09/12 12:54:40;;;;;;;8.82;3.97;;;24.60;57.80;;;;;;4968604;28;20022;-74
2022/09/12 12:57:22;;;;;;;5.22;3.58;;;24.70;56.70;;;;;;4965033;28;20523;-72
2022/09/12 13:00:29;;;;;;;4.82;2.72;;;25.00;56.60;;;;;;4970589;28;20459;-73
2022/09/12 13:03:03;;;;;;;8.38;4.45;;;25.10;58.30;;;;;;4892328;29;20040;-74
2022/09/12 13:05:43;;;;;;;6.68;4.20;;;24.90;55.90;;;;;;4949965;28;20118;-73